sensor_id;sensor_type;location;lat;lon;timestamp;temperature;humidity
18321;DHT22;54904;54.350;18.664;2022-10-16T00:00:42;15.10;99.90
18321;DHT22;54904;54.350;18.664;2022-10-16T00:03:10;15.10;99.90
18321;DHT22;54904;54.350;18.664;2022-10-16T00:05:42;15.10;99.90
18321;DHT22;54904;54.350;18.664;2022-10-16T00:08:11;15.10;99.90
18321;DHT22;54904;54.350;18.664;2022-10-16T00:10:39;15.20;99.90
18321;DHT22;54904;54.350;18.664;2022-10-16T00:13:06;15.20;99.90
18321;DHT22;54904;54.350;18.664;2022-10-16T00:15:34;15.20;99.90
18321;DHT22;54904;54.350;18.664;2022-10-16T00:18:04;15.20;99.90
18321;DHT22;54904;54.350;18.664;2022-10-16T00:20:34;15.10;99.90
18321;DHT22;54904;54.350;18.664;2022-10-16T00:23:03;15.10;99.90
18321;DHT22;54904;54.350;18.664;2022-10-16T00:25:31;15.20;99.90
18321;DHT22;54904;54.350;18.664;2022-10-16T00:27:59;15.20;99.90
18321;DHT22;54904;54.350;18.664;2022-10-16T00:30:26;15.20;99.90
18321;DHT22;54904;54.350;18.664;2022-10-16T00:32:54;15.20;99.90
18321;DHT22;54904;54.350;18.664;2022-10-16T00:35:23;15.20;99.90
18321;DHT22;54904;54.350;18.664;2022-10-16T00:37:50;15.70;99.90
18321;DHT22;54904;54.350;18.664;2022-10-16T00:40:17;15.20;99.90
18321;DHT22;54904;54.350;18.664;2022-10-16T00:42:45;15.10;99.90
18321;DHT22;54904;54.350;18.664;2022-10-16T00:45:12;15.10;99.90
18321;DHT22;54904;54.350;18.664;2022-10-16T00:47:42;15.10;99.90
18321;DHT22;54904;54.350;18.664;2022-10-16T00:50:15;15.10;99.90
18321;DHT22;54904;54.350;18.664;2022-10-16T00:52:46;15.20;99.90
18321;DHT22;54904;54.350;18.664;2022-10-16T00:55:15;15.20;99.90
18321;DHT22;54904;54.350;18.664;2022-10-16T00:57:43;15.20;99.90
18321;DHT22;54904;54.350;18.664;2022-10-16T01:00:13;15.20;99.90
18321;DHT22;54904;54.350;18.664;2022-10-16T01:02:40;15.20;99.90
18321;DHT22;54904;54.350;18.664;2022-10-16T01:05:08;15.20;99.90
18321;DHT22;54904;54.350;18.664;2022-10-16T01:07:45;15.20;99.90
18321;DHT22;54904;54.350;18.664;2022-10-16T01:10:24;15.20;99.90
18321;DHT22;54904;54.350;18.664;2022-10-16T01:12:58;15.20;99.90
18321;DHT22;54904;54.350;18.664;2022-10-16T01:15:33;15.20;99.90
18321;DHT22;54904;54.350;18.664;2022-10-16T01:18:05;14.90;99.90
18321;DHT22;54904;54.350;18.664;2022-10-16T01:20:37;15.30;99.90
18321;DHT22;54904;54.350;18.664;2022-10-16T01:23:15;15.30;99.90
18321;DHT22;54904;54.350;18.664;2022-10-16T01:25:59;15.30;99.90
18321;DHT22;54904;54.350;18.664;2022-10-16T01:28:34;15.30;99.90
18321;DHT22;54904;54.350;18.664;2022-10-16T01:31:03;15.30;99.90
18321;DHT22;54904;54.350;18.664;2022-10-16T01:33:35;15.40;99.90
18321;DHT22;54904;54.350;18.664;2022-10-16T01:36:10;15.40;99.90
18321;DHT22;54904;54.350;18.664;2022-10-16T01:38:39;15.40;99.90
18321;DHT22;54904;54.350;18.664;2022-10-16T01:41:10;15.40;99.90
18321;DHT22;54904;54.350;18.664;2022-10-16T01:43:42;15.40;99.90
18321;DHT22;54904;54.350;18.664;2022-10-16T01:46:10;15.40;99.90
18321;DHT22;54904;54.350;18.664;2022-10-16T01:48:39;15.40;99.90
18321;DHT22;54904;54.350;18.664;2022-10-16T01:51:11;15.50;99.90
18321;DHT22;54904;54.350;18.664;2022-10-16T01:53:39;15.50;99.90
18321;DHT22;54904;54.350;18.664;2022-10-16T01:56:10;15.50;99.90
18321;DHT22;54904;54.350;18.664;2022-10-16T01:58:43;15.50;99.90
18321;DHT22;54904;54.350;18.664;2022-10-16T02:01:15;15.50;99.90
18321;DHT22;54904;54.350;18.664;2022-10-16T02:03:44;15.50;99.90
18321;DHT22;54904;54.350;18.664;2022-10-16T02:06:13;15.50;99.90
18321;DHT22;54904;54.350;18.664;2022-10-16T02:08:40;15.50;99.90
18321;DHT22;54904;54.350;18.664;2022-10-16T02:11:10;15.50;99.90
18321;DHT22;54904;54.350;18.664;2022-10-16T02:13:41;15.50;99.90
18321;DHT22;54904;54.350;18.664;2022-10-16T02:16:11;15.50;99.90
18321;DHT22;54904;54.350;18.664;2022-10-16T02:18:40;15.50;99.90
18321;DHT22;54904;54.350;18.664;2022-10-16T02:21:13;15.50;99.90
18321;DHT22;54904;54.350;18.664;2022-10-16T02:23:48;15.50;99.90
18321;DHT22;54904;54.350;18.664;2022-10-16T02:26:28;15.50;99.90
18321;DHT22;54904;54.350;18.664;2022-10-16T02:29:01;15.50;99.90
18321;DHT22;54904;54.350;18.664;2022-10-16T02:31:34;15.50;99.90
18321;DHT22;54904;54.350;18.664;2022-10-16T02:34:03;15.60;99.90
18321;DHT22;54904;54.350;18.664;2022-10-16T02:36:32;15.60;99.90
18321;DHT22;54904;54.350;18.664;2022-10-16T02:39:02;15.60;99.90
18321;DHT22;54904;54.350;18.664;2022-10-16T02:41:30;15.60;99.90
18321;DHT22;54904;54.350;18.664;2022-10-16T02:43:59;15.60;99.90
18321;DHT22;54904;54.350;18.664;2022-10-16T02:46:26;15.60;99.90
18321;DHT22;54904;54.350;18.664;2022-10-16T02:48:53;15.60;99.90
18321;DHT22;54904;54.350;18.664;2022-10-16T02:51:21;15.70;99.90
18321;DHT22;54904;54.350;18.664;2022-10-16T02:53:48;15.70;99.90
18321;DHT22;54904;54.350;18.664;2022-10-16T02:56:15;15.70;99.90
18321;DHT22;54904;54.350;18.664;2022-10-16T02:58:42;15.70;99.90
18321;DHT22;54904;54.350;18.664;2022-10-16T03:01:11;15.70;99.90
18321;DHT22;54904;54.350;18.664;2022-10-16T03:03:40;15.70;99.90
18321;DHT22;54904;54.350;18.664;2022-10-16T03:06:07;15.70;99.90
18321;DHT22;54904;54.350;18.664;2022-10-16T03:08:34;15.70;99.90
18321;DHT22;54904;54.350;18.664;2022-10-16T03:11:04;15.70;99.90
18321;DHT22;54904;54.350;18.664;2022-10-16T03:13:31;15.70;99.90
18321;DHT22;54904;54.350;18.664;2022-10-16T03:15:58;15.70;99.90
18321;DHT22;54904;54.350;18.664;2022-10-16T03:18:27;15.70;99.90
18321;DHT22;54904;54.350;18.664;2022-10-16T03:20:54;15.70;99.90
18321;DHT22;54904;54.350;18.664;2022-10-16T03:23:21;15.70;99.90
18321;DHT22;54904;54.350;18.664;2022-10-16T03:25:48;15.70;99.90
18321;DHT22;54904;54.350;18.664;2022-10-16T03:28:15;15.70;99.90
18321;DHT22;54904;54.350;18.664;2022-10-16T03:30:43;15.70;99.90
18321;DHT22;54904;54.350;18.664;2022-10-16T03:33:10;15.70;99.90
18321;DHT22;54904;54.350;18.664;2022-10-16T03:35:39;15.70;99.90
18321;DHT22;54904;54.350;18.664;2022-10-16T03:38:06;15.70;99.90
18321;DHT22;54904;54.350;18.664;2022-10-16T03:40:33;15.70;99.90
18321;DHT22;54904;54.350;18.664;2022-10-16T03:43:00;15.70;99.90
18321;DHT22;54904;54.350;18.664;2022-10-16T03:45:27;15.70;99.90
18321;DHT22;54904;54.350;18.664;2022-10-16T03:47:54;15.70;99.90
18321;DHT22;54904;54.350;18.664;2022-10-16T03:50:22;15.70;99.90
18321;DHT22;54904;54.350;18.664;2022-10-16T03:52:50;15.70;99.90
18321;DHT22;54904;54.350;18.664;2022-10-16T03:55:17;15.70;99.90
18321;DHT22;54904;54.350;18.664;2022-10-16T03:57:44;15.70;99.90
18321;DHT22;54904;54.350;18.664;2022-10-16T04:00:12;15.70;99.90
18321;DHT22;54904;54.350;18.664;2022-10-16T04:02:39;15.70;99.90
18321;DHT22;54904;54.350;18.664;2022-10-16T04:05:07;15.70;99.90
18321;DHT22;54904;54.350;18.664;2022-10-16T04:07:34;15.70;99.90
18321;DHT22;54904;54.350;18.664;2022-10-16T04:10:04;15.70;99.90
18321;DHT22;54904;54.350;18.664;2022-10-16T04:12:31;15.70;99.90
18321;DHT22;54904;54.350;18.664;2022-10-16T04:14:58;15.70;99.90
18321;DHT22;54904;54.350;18.664;2022-10-16T04:17:25;15.70;99.90
18321;DHT22;54904;54.350;18.664;2022-10-16T04:19:52;15.70;99.90
18321;DHT22;54904;54.350;18.664;2022-10-16T04:22:19;15.70;99.90
18321;DHT22;54904;54.350;18.664;2022-10-16T04:24:47;15.70;99.90
18321;DHT22;54904;54.350;18.664;2022-10-16T04:27:15;15.80;99.90
18321;DHT22;54904;54.350;18.664;2022-10-16T04:29:42;15.80;99.90
18321;DHT22;54904;54.350;18.664;2022-10-16T04:32:10;15.80;99.90
18321;DHT22;54904;54.350;18.664;2022-10-16T04:34:39;15.80;99.90
18321;DHT22;54904;54.350;18.664;2022-10-16T04:37:06;15.90;99.90
18321;DHT22;54904;54.350;18.664;2022-10-16T04:39:33;15.90;99.90
18321;DHT22;54904;54.350;18.664;2022-10-16T04:42:00;15.90;99.90
18321;DHT22;54904;54.350;18.664;2022-10-16T04:44:29;15.90;99.90
18321;DHT22;54904;54.350;18.664;2022-10-16T04:46:56;15.90;99.90
18321;DHT22;54904;54.350;18.664;2022-10-16T04:49:24;15.90;99.90
18321;DHT22;54904;54.350;18.664;2022-10-16T04:51:51;15.90;99.90
18321;DHT22;54904;54.350;18.664;2022-10-16T04:54:18;15.90;99.90
18321;DHT22;54904;54.350;18.664;2022-10-16T04:56:45;15.90;99.90
18321;DHT22;54904;54.350;18.664;2022-10-16T04:59:14;15.90;99.90
18321;DHT22;54904;54.350;18.664;2022-10-16T05:01:42;15.90;99.90
18321;DHT22;54904;54.350;18.664;2022-10-16T05:04:10;16.00;99.90
18321;DHT22;54904;54.350;18.664;2022-10-16T05:06:38;16.00;99.90
18321;DHT22;54904;54.350;18.664;2022-10-16T05:09:05;16.00;99.90
18321;DHT22;54904;54.350;18.664;2022-10-16T05:11:32;16.00;99.90
18321;DHT22;54904;54.350;18.664;2022-10-16T05:14:00;16.00;99.90
18321;DHT22;54904;54.350;18.664;2022-10-16T05:16:27;16.00;99.90
18321;DHT22;54904;54.350;18.664;2022-10-16T05:18:55;16.00;99.90
18321;DHT22;54904;54.350;18.664;2022-10-16T05:21:23;16.00;99.90
18321;DHT22;54904;54.350;18.664;2022-10-16T05:23:50;16.00;99.90
18321;DHT22;54904;54.350;18.664;2022-10-16T05:26:17;16.00;99.90
18321;DHT22;54904;54.350;18.664;2022-10-16T05:28:44;16.00;99.90
18321;DHT22;54904;54.350;18.664;2022-10-16T05:31:11;16.00;99.90
18321;DHT22;54904;54.350;18.664;2022-10-16T05:33:38;16.00;99.90
18321;DHT22;54904;54.350;18.664;2022-10-16T05:36:08;16.00;99.90
18321;DHT22;54904;54.350;18.664;2022-10-16T05:38:36;16.00;99.90
18321;DHT22;54904;54.350;18.664;2022-10-16T05:41:04;16.00;99.90
18321;DHT22;54904;54.350;18.664;2022-10-16T05:43:32;16.00;99.90
18321;DHT22;54904;54.350;18.664;2022-10-16T05:46:00;16.00;99.90
18321;DHT22;54904;54.350;18.664;2022-10-16T05:48:28;16.00;99.90
18321;DHT22;54904;54.350;18.664;2022-10-16T05:50:59;16.00;99.90
18321;DHT22;54904;54.350;18.664;2022-10-16T05:53:29;16.00;99.90
18321;DHT22;54904;54.350;18.664;2022-10-16T05:55:57;16.00;99.90
18321;DHT22;54904;54.350;18.664;2022-10-16T05:58:25;16.00;99.90
18321;DHT22;54904;54.350;18.664;2022-10-16T06:00:53;16.00;99.90
18321;DHT22;54904;54.350;18.664;2022-10-16T06:03:21;16.00;99.90
18321;DHT22;54904;54.350;18.664;2022-10-16T06:05:48;16.00;99.90
18321;DHT22;54904;54.350;18.664;2022-10-16T06:08:15;16.00;99.90
18321;DHT22;54904;54.350;18.664;2022-10-16T06:10:45;16.00;99.90
18321;DHT22;54904;54.350;18.664;2022-10-16T06:13:12;16.00;99.90
18321;DHT22;54904;54.350;18.664;2022-10-16T06:15:40;16.00;99.90
18321;DHT22;54904;54.350;18.664;2022-10-16T06:18:08;16.00;99.90
18321;DHT22;54904;54.350;18.664;2022-10-16T06:20:36;16.00;99.90
18321;DHT22;54904;54.350;18.664;2022-10-16T06:23:03;16.10;99.90
18321;DHT22;54904;54.350;18.664;2022-10-16T06:25:31;16.10;99.90
18321;DHT22;54904;54.350;18.664;2022-10-16T06:27:59;16.10;99.90
18321;DHT22;54904;54.350;18.664;2022-10-16T06:30:26;16.10;99.90
18321;DHT22;54904;54.350;18.664;2022-10-16T06:32:53;16.10;99.90
18321;DHT22;54904;54.350;18.664;2022-10-16T06:35:21;16.10;99.90
18321;DHT22;54904;54.350;18.664;2022-10-16T06:37:48;16.10;99.90
18321;DHT22;54904;54.350;18.664;2022-10-16T06:40:15;16.10;99.90
18321;DHT22;54904;54.350;18.664;2022-10-16T06:42:42;16.10;99.90
18321;DHT22;54904;54.350;18.664;2022-10-16T06:45:11;16.10;99.90
18321;DHT22;54904;54.350;18.664;2022-10-16T06:47:38;16.20;99.90
18321;DHT22;54904;54.350;18.664;2022-10-16T06:50:06;16.20;99.90
18321;DHT22;54904;54.350;18.664;2022-10-16T06:52:33;16.20;99.90
18321;DHT22;54904;54.350;18.664;2022-10-16T06:55:01;16.20;99.90
18321;DHT22;54904;54.350;18.664;2022-10-16T06:57:28;16.20;99.90
18321;DHT22;54904;54.350;18.664;2022-10-16T06:59:56;16.10;99.90
18321;DHT22;54904;54.350;18.664;2022-10-16T07:02:24;16.10;99.90
18321;DHT22;54904;54.350;18.664;2022-10-16T07:04:51;16.10;99.90
18321;DHT22;54904;54.350;18.664;2022-10-16T07:07:18;16.10;99.90
18321;DHT22;54904;54.350;18.664;2022-10-16T07:09:46;16.10;99.90
18321;DHT22;54904;54.350;18.664;2022-10-16T07:12:13;16.10;99.90
18321;DHT22;54904;54.350;18.664;2022-10-16T07:14:40;16.10;99.90
18321;DHT22;54904;54.350;18.664;2022-10-16T07:17:07;16.10;99.90
18321;DHT22;54904;54.350;18.664;2022-10-16T07:19:36;16.10;99.90
18321;DHT22;54904;54.350;18.664;2022-10-16T07:22:03;16.10;99.90
18321;DHT22;54904;54.350;18.664;2022-10-16T07:24:30;16.10;99.90
18321;DHT22;54904;54.350;18.664;2022-10-16T07:26:58;16.10;99.90
18321;DHT22;54904;54.350;18.664;2022-10-16T07:29:25;16.10;99.90
18321;DHT22;54904;54.350;18.664;2022-10-16T07:31:52;16.10;99.90
18321;DHT22;54904;54.350;18.664;2022-10-16T07:34:20;16.10;99.90
18321;DHT22;54904;54.350;18.664;2022-10-16T07:36:50;16.10;99.90
18321;DHT22;54904;54.350;18.664;2022-10-16T07:39:17;16.20;99.90
18321;DHT22;54904;54.350;18.664;2022-10-16T07:41:44;16.20;99.90
18321;DHT22;54904;54.350;18.664;2022-10-16T07:44:12;16.20;99.90
18321;DHT22;54904;54.350;18.664;2022-10-16T07:46:39;16.20;99.90
18321;DHT22;54904;54.350;18.664;2022-10-16T07:49:06;16.20;99.90
18321;DHT22;54904;54.350;18.664;2022-10-16T07:51:33;16.30;99.90
18321;DHT22;54904;54.350;18.664;2022-10-16T07:54:02;16.30;99.90
18321;DHT22;54904;54.350;18.664;2022-10-16T07:56:31;16.30;99.90
18321;DHT22;54904;54.350;18.664;2022-10-16T07:58:58;16.30;99.90
18321;DHT22;54904;54.350;18.664;2022-10-16T08:01:26;16.30;99.90
18321;DHT22;54904;54.350;18.664;2022-10-16T08:03:53;16.30;99.90
18321;DHT22;54904;54.350;18.664;2022-10-16T08:06:21;16.30;99.90
18321;DHT22;54904;54.350;18.664;2022-10-16T08:08:49;16.30;99.90
18321;DHT22;54904;54.350;18.664;2022-10-16T08:11:17;16.30;99.90
18321;DHT22;54904;54.350;18.664;2022-10-16T08:13:45;16.40;99.90
18321;DHT22;54904;54.350;18.664;2022-10-16T08:16:12;16.40;99.90
18321;DHT22;54904;54.350;18.664;2022-10-16T08:18:40;16.40;99.90
18321;DHT22;54904;54.350;18.664;2022-10-16T08:21:12;16.50;99.90
18321;DHT22;54904;54.350;18.664;2022-10-16T08:23:40;16.40;99.90
18321;DHT22;54904;54.350;18.664;2022-10-16T08:26:08;16.50;99.90
18321;DHT22;54904;54.350;18.664;2022-10-16T08:28:37;16.50;99.90
18321;DHT22;54904;54.350;18.664;2022-10-16T08:31:06;16.50;99.90
18321;DHT22;54904;54.350;18.664;2022-10-16T08:33:34;16.50;99.90
18321;DHT22;54904;54.350;18.664;2022-10-16T08:36:02;16.50;99.90
18321;DHT22;54904;54.350;18.664;2022-10-16T08:38:29;16.60;99.90
18321;DHT22;54904;54.350;18.664;2022-10-16T08:41:08;16.60;99.90
18321;DHT22;54904;54.350;18.664;2022-10-16T08:43:54;16.60;99.90
18321;DHT22;54904;54.350;18.664;2022-10-16T08:46:37;16.60;99.90
18321;DHT22;54904;54.350;18.664;2022-10-16T08:49:11;16.60;99.90
18321;DHT22;54904;54.350;18.664;2022-10-16T08:51:39;16.60;99.90
18321;DHT22;54904;54.350;18.664;2022-10-16T08:54:23;16.60;99.90
18321;DHT22;54904;54.350;18.664;2022-10-16T08:56:54;16.70;99.90
18321;DHT22;54904;54.350;18.664;2022-10-16T08:59:23;16.70;99.90
18321;DHT22;54904;54.350;18.664;2022-10-16T09:01:51;16.70;99.90
18321;DHT22;54904;54.350;18.664;2022-10-16T09:07:21;16.80;99.90
18321;DHT22;54904;54.350;18.664;2022-10-16T09:10:01;16.80;99.90
18321;DHT22;54904;54.350;18.664;2022-10-16T09:12:38;16.80;99.90
18321;DHT22;54904;54.350;18.664;2022-10-16T09:15:20;16.80;99.90
18321;DHT22;54904;54.350;18.664;2022-10-16T09:17:55;16.90;99.90
18321;DHT22;54904;54.350;18.664;2022-10-16T09:20:40;16.90;99.90
18321;DHT22;54904;54.350;18.664;2022-10-16T09:23:16;16.90;99.90
18321;DHT22;54904;54.350;18.664;2022-10-16T09:25:46;17.00;99.90
18321;DHT22;54904;54.350;18.664;2022-10-16T09:28:15;16.90;99.90
18321;DHT22;54904;54.350;18.664;2022-10-16T09:30:45;17.00;99.90
18321;DHT22;54904;54.350;18.664;2022-10-16T09:33:15;17.00;99.90
18321;DHT22;54904;54.350;18.664;2022-10-16T09:35:44;17.00;99.90
18321;DHT22;54904;54.350;18.664;2022-10-16T09:38:22;17.00;99.90
18321;DHT22;54904;54.350;18.664;2022-10-16T09:40:49;17.00;99.90
18321;DHT22;54904;54.350;18.664;2022-10-16T09:43:21;17.10;99.90
18321;DHT22;54904;54.350;18.664;2022-10-16T09:45:56;17.10;99.90
18321;DHT22;54904;54.350;18.664;2022-10-16T09:48:25;17.00;99.90
18321;DHT22;54904;54.350;18.664;2022-10-16T09:50:57;17.10;99.90
18321;DHT22;54904;54.350;18.664;2022-10-16T09:53:26;17.10;99.90
18321;DHT22;54904;54.350;18.664;2022-10-16T09:56:04;17.10;99.90
18321;DHT22;54904;54.350;18.664;2022-10-16T09:58:32;17.10;99.90
18321;DHT22;54904;54.350;18.664;2022-10-16T10:01:01;17.10;99.90
18321;DHT22;54904;54.350;18.664;2022-10-16T10:03:35;17.10;99.90
18321;DHT22;54904;54.350;18.664;2022-10-16T10:06:14;17.10;99.90
18321;DHT22;54904;54.350;18.664;2022-10-16T10:08:56;17.10;99.90
18321;DHT22;54904;54.350;18.664;2022-10-16T10:11:50;17.10;99.90
18321;DHT22;54904;54.350;18.664;2022-10-16T10:14:21;17.10;99.90
18321;DHT22;54904;54.350;18.664;2022-10-16T10:16:50;17.10;99.90
18321;DHT22;54904;54.350;18.664;2022-10-16T10:19:19;17.20;99.90
18321;DHT22;54904;54.350;18.664;2022-10-16T10:21:47;17.20;99.90
18321;DHT22;54904;54.350;18.664;2022-10-16T10:24:16;17.20;99.90
18321;DHT22;54904;54.350;18.664;2022-10-16T10:26:52;17.20;99.90
18321;DHT22;54904;54.350;18.664;2022-10-16T10:29:41;17.20;99.90
18321;DHT22;54904;54.350;18.664;2022-10-16T10:32:23;17.20;99.90
18321;DHT22;54904;54.350;18.664;2022-10-16T10:35:07;17.20;99.90
18321;DHT22;54904;54.350;18.664;2022-10-16T10:38:04;17.30;99.90
18321;DHT22;54904;54.350;18.664;2022-10-16T10:43:40;16.20;99.90
18321;DHT22;54904;54.350;18.664;2022-10-16T10:46:16;17.30;99.90
18321;DHT22;54904;54.350;18.664;2022-10-16T10:51:45;17.30;99.90
18321;DHT22;54904;54.350;18.664;2022-10-16T10:54:22;17.30;99.90
18321;DHT22;54904;54.350;18.664;2022-10-16T10:56:58;17.30;99.90
18321;DHT22;54904;54.350;18.664;2022-10-16T11:02:21;17.40;99.90
18321;DHT22;54904;54.350;18.664;2022-10-16T11:07:52;17.40;99.90
18321;DHT22;54904;54.350;18.664;2022-10-16T11:10:23;17.40;99.90
18321;DHT22;54904;54.350;18.664;2022-10-16T11:12:57;17.40;99.90
18321;DHT22;54904;54.350;18.664;2022-10-16T11:15:29;17.50;99.90
18321;DHT22;54904;54.350;18.664;2022-10-16T11:18:03;17.50;99.90
18321;DHT22;54904;54.350;18.664;2022-10-16T11:20:37;17.50;99.90
18321;DHT22;54904;54.350;18.664;2022-10-16T11:23:10;17.60;99.90
18321;DHT22;54904;54.350;18.664;2022-10-16T11:25:40;17.70;99.90
18321;DHT22;54904;54.350;18.664;2022-10-16T11:28:11;17.70;99.90
18321;DHT22;54904;54.350;18.664;2022-10-16T11:30:44;17.70;99.90
18321;DHT22;54904;54.350;18.664;2022-10-16T11:33:24;17.70;99.90
18321;DHT22;54904;54.350;18.664;2022-10-16T11:36:00;17.80;99.90
18321;DHT22;54904;54.350;18.664;2022-10-16T11:38:32;17.80;99.90
18321;DHT22;54904;54.350;18.664;2022-10-16T11:41:08;17.80;99.90
18321;DHT22;54904;54.350;18.664;2022-10-16T11:47:24;18.00;99.90
18321;DHT22;54904;54.350;18.664;2022-10-16T11:49:58;17.80;99.90
18321;DHT22;54904;54.350;18.664;2022-10-16T11:53:10;17.60;99.90
18321;DHT22;54904;54.350;18.664;2022-10-16T11:56:32;17.70;99.90
18321;DHT22;54904;54.350;18.664;2022-10-16T11:59:18;17.90;99.90
18321;DHT22;54904;54.350;18.664;2022-10-16T12:02:46;18.00;99.90
18321;DHT22;54904;54.350;18.664;2022-10-16T12:09:21;18.20;99.90
18321;DHT22;54904;54.350;18.664;2022-10-16T12:11:49;17.90;99.90
18321;DHT22;54904;54.350;18.664;2022-10-16T12:14:33;17.90;99.90
18321;DHT22;54904;54.350;18.664;2022-10-16T12:17:03;18.00;99.90
18321;DHT22;54904;54.350;18.664;2022-10-16T12:19:32;18.00;99.90
18321;DHT22;54904;54.350;18.664;2022-10-16T12:22:03;18.00;99.90
18321;DHT22;54904;54.350;18.664;2022-10-16T12:24:37;18.10;99.90
18321;DHT22;54904;54.350;18.664;2022-10-16T12:27:22;18.20;99.90
18321;DHT22;54904;54.350;18.664;2022-10-16T12:29:55;18.30;99.90
18321;DHT22;54904;54.350;18.664;2022-10-16T12:32:28;18.30;99.90
18321;DHT22;54904;54.350;18.664;2022-10-16T12:34:56;18.30;99.90
18321;DHT22;54904;54.350;18.664;2022-10-16T12:37:27;18.40;99.90
18321;DHT22;54904;54.350;18.664;2022-10-16T12:39:58;18.40;99.90
18321;DHT22;54904;54.350;18.664;2022-10-16T12:42:34;18.50;99.90
18321;DHT22;54904;54.350;18.664;2022-10-16T12:45:22;18.50;99.90
18321;DHT22;54904;54.350;18.664;2022-10-16T12:48:20;18.60;99.90
18321;DHT22;54904;54.350;18.664;2022-10-16T12:50:57;18.60;99.90
18321;DHT22;54904;54.350;18.664;2022-10-16T12:53:38;18.60;99.90
18321;DHT22;54904;54.350;18.664;2022-10-16T12:56:15;18.70;99.90
18321;DHT22;54904;54.350;18.664;2022-10-16T12:59:00;18.80;99.90
18321;DHT22;54904;54.350;18.664;2022-10-16T13:01:41;18.90;99.90
18321;DHT22;54904;54.350;18.664;2022-10-16T13:07:48;18.90;99.90
18321;DHT22;54904;54.350;18.664;2022-10-16T13:10:31;18.90;99.90
18321;DHT22;54904;54.350;18.664;2022-10-16T13:13:20;18.80;99.90
18321;DHT22;54904;54.350;18.664;2022-10-16T13:16:13;18.90;99.90
18321;DHT22;54904;54.350;18.664;2022-10-16T13:19:31;18.90;99.90
18321;DHT22;54904;54.350;18.664;2022-10-16T13:22:44;18.90;99.90
18321;DHT22;54904;54.350;18.664;2022-10-16T13:26:19;18.90;99.90
18321;DHT22;54904;54.350;18.664;2022-10-16T13:28:50;18.90;99.90
18321;DHT22;54904;54.350;18.664;2022-10-16T13:31:21;18.90;99.90
18321;DHT22;54904;54.350;18.664;2022-10-16T13:33:54;18.90;99.90
18321;DHT22;54904;54.350;18.664;2022-10-16T13:36:23;18.80;99.90
18321;DHT22;54904;54.350;18.664;2022-10-16T13:39:01;18.80;99.90
18321;DHT22;54904;54.350;18.664;2022-10-16T13:41:31;18.80;99.90
18321;DHT22;54904;54.350;18.664;2022-10-16T13:44:00;18.80;99.90
18321;DHT22;54904;54.350;18.664;2022-10-16T13:46:27;18.80;99.90
18321;DHT22;54904;54.350;18.664;2022-10-16T13:48:59;18.80;99.90
18321;DHT22;54904;54.350;18.664;2022-10-16T13:51:27;18.70;99.90
18321;DHT22;54904;54.350;18.664;2022-10-16T13:53:56;18.70;99.90
18321;DHT22;54904;54.350;18.664;2022-10-16T13:56:26;18.70;99.90
18321;DHT22;54904;54.350;18.664;2022-10-16T13:59:03;18.70;99.90
18321;DHT22;54904;54.350;18.664;2022-10-16T14:01:32;18.70;99.90
18321;DHT22;54904;54.350;18.664;2022-10-16T14:04:05;18.70;99.90
18321;DHT22;54904;54.350;18.664;2022-10-16T14:06:33;18.70;99.90
18321;DHT22;54904;54.350;18.664;2022-10-16T14:09:07;18.70;99.90
18321;DHT22;54904;54.350;18.664;2022-10-16T14:11:38;18.70;99.90
18321;DHT22;54904;54.350;18.664;2022-10-16T14:14:10;18.70;99.90
18321;DHT22;54904;54.350;18.664;2022-10-16T14:16:41;18.70;99.90
18321;DHT22;54904;54.350;18.664;2022-10-16T14:19:14;18.70;99.90
18321;DHT22;54904;54.350;18.664;2022-10-16T14:21:45;18.70;99.90
18321;DHT22;54904;54.350;18.664;2022-10-16T14:24:12;18.70;99.90
18321;DHT22;54904;54.350;18.664;2022-10-16T14:26:44;18.70;99.90
18321;DHT22;54904;54.350;18.664;2022-10-16T14:29:17;18.70;99.90
18321;DHT22;54904;54.350;18.664;2022-10-16T14:31:55;18.70;99.90
18321;DHT22;54904;54.350;18.664;2022-10-16T14:34:28;18.70;99.90
18321;DHT22;54904;54.350;18.664;2022-10-16T14:36:57;18.70;99.90
18321;DHT22;54904;54.350;18.664;2022-10-16T14:39:32;18.70;99.90
18321;DHT22;54904;54.350;18.664;2022-10-16T14:42:02;18.70;99.90
18321;DHT22;54904;54.350;18.664;2022-10-16T14:44:58;18.70;99.90
18321;DHT22;54904;54.350;18.664;2022-10-16T14:47:28;18.70;99.90
18321;DHT22;54904;54.350;18.664;2022-10-16T14:49:55;18.70;99.90
18321;DHT22;54904;54.350;18.664;2022-10-16T14:52:24;18.70;99.90
18321;DHT22;54904;54.350;18.664;2022-10-16T14:54:51;18.70;99.90
18321;DHT22;54904;54.350;18.664;2022-10-16T14:57:22;18.60;99.90
18321;DHT22;54904;54.350;18.664;2022-10-16T14:59:50;18.60;99.90
18321;DHT22;54904;54.350;18.664;2022-10-16T15:02:25;18.60;99.90
18321;DHT22;54904;54.350;18.664;2022-10-16T15:04:54;19.20;99.90
18321;DHT22;54904;54.350;18.664;2022-10-16T15:07:22;18.60;99.90
18321;DHT22;54904;54.350;18.664;2022-10-16T15:09:49;18.60;99.90
18321;DHT22;54904;54.350;18.664;2022-10-16T15:12:16;18.60;99.90
18321;DHT22;54904;54.350;18.664;2022-10-16T15:14:44;18.60;99.90
18321;DHT22;54904;54.350;18.664;2022-10-16T15:17:11;18.60;99.90
18321;DHT22;54904;54.350;18.664;2022-10-16T15:19:40;18.50;99.90
18321;DHT22;54904;54.350;18.664;2022-10-16T15:22:09;18.50;99.90
18321;DHT22;54904;54.350;18.664;2022-10-16T15:24:36;18.50;99.90
18321;DHT22;54904;54.350;18.664;2022-10-16T15:27:03;18.50;99.90
18321;DHT22;54904;54.350;18.664;2022-10-16T15:29:31;18.50;99.90
18321;DHT22;54904;54.350;18.664;2022-10-16T15:31:58;18.50;99.90
18321;DHT22;54904;54.350;18.664;2022-10-16T15:34:25;18.40;99.90
18321;DHT22;54904;54.350;18.664;2022-10-16T15:36:55;18.50;99.90
18321;DHT22;54904;54.350;18.664;2022-10-16T15:39:23;18.40;99.90
18321;DHT22;54904;54.350;18.664;2022-10-16T15:41:50;18.40;99.90
18321;DHT22;54904;54.350;18.664;2022-10-16T15:44:19;18.30;99.90
18321;DHT22;54904;54.350;18.664;2022-10-16T15:46:48;18.30;99.90
18321;DHT22;54904;54.350;18.664;2022-10-16T15:49:15;18.30;99.90
18321;DHT22;54904;54.350;18.664;2022-10-16T15:51:42;18.30;99.90
18321;DHT22;54904;54.350;18.664;2022-10-16T15:54:11;18.30;99.90
18321;DHT22;54904;54.350;18.664;2022-10-16T15:56:38;18.20;99.90
18321;DHT22;54904;54.350;18.664;2022-10-16T15:59:06;18.30;99.90
18321;DHT22;54904;54.350;18.664;2022-10-16T16:01:34;18.30;99.90
18321;DHT22;54904;54.350;18.664;2022-10-16T16:04:03;18.20;99.90
18321;DHT22;54904;54.350;18.664;2022-10-16T16:06:31;18.20;99.90